createdAt,value
2023-02-24T17:48:37.658Z,4.05
2023-02-24T17:51:04.163Z,4.55
2023-02-24T17:53:31.217Z,3.85
2023-02-24T17:56:02.869Z,4.82
2023-02-24T17:58:29.698Z,4.53
2023-02-24T18:00:56.217Z,6.10
2023-02-24T18:03:23.077Z,4.20
2023-02-24T18:05:57.216Z,4.85
2023-02-24T18:08:23.772Z,4.88
2023-02-24T18:10:50.294Z,3.60
2023-02-24T18:13:16.874Z,4.45
2023-02-24T18:15:43.466Z,4.47
2023-02-24T18:18:10.279Z,4.75
2023-02-24T18:20:36.725Z,5.07
2023-02-24T18:23:04.775Z,5.22
2023-02-24T18:25:31.525Z,5.50
2023-02-24T18:27:58.171Z,5.53
2023-02-24T18:30:24.664Z,5.65
2023-02-24T18:32:51.965Z,6.32
2023-02-24T18:35:21.923Z,6.55
2023-02-24T18:37:53.230Z,6.35
2023-02-24T18:40:21.170Z,7.55
2023-02-24T18:42:48.592Z,7.70
2023-02-24T18:45:15.076Z,8.40
2023-02-24T18:47:41.588Z,8.15
2023-02-24T18:50:09.026Z,7.93
2023-02-24T18:52:35.531Z,8.70
2023-02-24T18:55:02.101Z,11.32
2023-02-24T18:57:30.068Z,9.38
2023-02-24T18:59:56.650Z,9.32
2023-02-24T19:02:23.115Z,8.23
2023-02-24T19:04:49.679Z,9.85
2023-02-24T19:07:16.375Z,8.13
2023-02-24T19:09:42.950Z,8.40
2023-02-24T19:12:09.522Z,12.40
2023-02-24T19:14:37.540Z,11.68
2023-02-24T19:17:04.590Z,11.30
2023-02-24T19:19:31.186Z,10.32
2023-02-24T19:21:57.740Z,10.18
2023-02-24T19:24:24.401Z,9.27
2023-02-24T19:26:52.357Z,11.85
2023-02-24T19:29:20.527Z,9.75
2023-02-24T19:31:54.022Z,8.23
2023-02-24T19:34:21.058Z,8.45
2023-02-24T19:36:47.646Z,7.55
2023-02-24T19:39:15.449Z,7.80
2023-02-24T19:41:42.593Z,10.55
2023-02-24T19:44:10.274Z,10.48
2023-02-24T19:46:37.168Z,9.10
2023-02-24T19:49:05.107Z,9.00
2023-02-24T19:51:31.888Z,9.13
2023-02-24T19:54:00.033Z,9.07
2023-02-24T19:56:27.514Z,10.20
2023-02-24T19:58:54.698Z,8.95
2023-02-24T20:01:21.841Z,6.70
2023-02-24T20:03:49.034Z,11.65
2023-02-24T20:06:21.464Z,31.63
2023-02-24T20:08:48.191Z,12.02
2023-02-24T20:11:14.961Z,9.63
2023-02-24T20:13:41.562Z,10.88
2023-02-24T20:16:09.251Z,12.60
2023-02-24T20:18:35.995Z,11.73
2023-02-24T20:21:03.053Z,11.98
2023-02-24T20:23:34.290Z,9.45
2023-02-24T20:26:01.569Z,10.35
2023-02-24T20:28:28.558Z,10.00
2023-02-24T20:30:55.705Z,11.25
2023-02-24T20:33:23.457Z,10.63
2023-02-24T20:35:50.008Z,7.63
2023-02-24T20:38:16.642Z,10.35
2023-02-24T20:40:44.614Z,10.60
2023-02-24T20:43:11.285Z,10.25
2023-02-24T20:45:38.665Z,9.73
2023-02-24T20:48:05.208Z,11.88
2023-02-24T20:50:31.706Z,11.60
2023-02-24T20:52:58.287Z,10.93
2023-02-24T20:55:24.923Z,9.82
2023-02-24T20:57:52.787Z,11.40
2023-02-24T21:00:19.813Z,10.60
2023-02-24T21:02:46.430Z,10.63
2023-02-24T21:05:20.888Z,10.57
2023-02-24T21:07:48.031Z,10.88
2023-02-24T21:10:14.560Z,9.20
2023-02-24T21:12:41.315Z,11.20
2023-02-24T21:15:12.324Z,10.82
2023-02-24T21:17:39.327Z,10.25
2023-02-24T21:20:06.427Z,10.00
2023-02-24T21:22:33.457Z,11.40
2023-02-24T21:25:00.041Z,9.82
2023-02-24T21:27:26.786Z,8.90
2023-02-24T21:29:53.553Z,6.05
2023-02-24T21:32:21.540Z,4.70
2023-02-24T21:34:48.314Z,5.85
2023-02-24T21:37:14.761Z,6.70
2023-02-24T21:39:41.393Z,5.97
2023-02-24T21:42:07.852Z,6.20
2023-02-24T21:44:34.443Z,6.00
2023-02-24T21:47:00.986Z,6.60
2023-02-24T21:49:30.216Z,6.65
2023-02-24T21:51:56.733Z,7.22
2023-02-24T21:54:23.485Z,6.68
2023-02-24T21:56:49.926Z,6.43
2023-02-24T21:59:16.417Z,5.82
2023-02-24T22:01:43.819Z,5.40
2023-02-24T22:04:11.267Z,5.75
2023-02-24T22:06:39.532Z,4.72
2023-02-24T22:09:06.718Z,4.60
2023-02-24T22:11:35.317Z,4.70
2023-02-24T22:14:01.886Z,5.38
2023-02-24T22:16:28.533Z,4.80
2023-02-24T22:18:55.291Z,5.65
2023-02-24T22:21:22.733Z,5.10
2023-02-24T22:23:52.238Z,4.68
2023-02-24T22:26:19.405Z,4.68
2023-02-24T22:28:49.698Z,4.35
2023-02-24T22:31:17.570Z,4.00
2023-02-24T22:33:44.237Z,3.80
2023-02-24T22:36:11.510Z,3.67
2023-02-24T22:38:38.830Z,2.90
2023-02-24T22:41:07.964Z,3.83
2023-02-24T22:43:35.073Z,3.38
2023-02-24T22:46:04.080Z,2.85
2023-02-24T22:48:31.001Z,2.60
2023-02-24T22:50:58.314Z,3.00
2023-02-24T22:53:24.924Z,3.10
2023-02-24T22:55:51.976Z,3.53
2023-02-24T22:58:20.886Z,3.13
2023-02-24T23:00:47.869Z,3.10
2023-02-24T23:03:14.615Z,2.95
2023-02-24T23:05:41.270Z,3.10
2023-02-24T23:08:07.788Z,3.42
2023-02-24T23:10:34.571Z,2.63
2023-02-24T23:13:01.008Z,2.42
2023-02-24T23:15:28.930Z,2.97
2023-02-24T23:17:55.397Z,2.70
2023-02-24T23:20:21.886Z,3.05
2023-02-24T23:22:52.493Z,2.47
2023-02-24T23:25:19.983Z,2.85
2023-02-24T23:27:46.426Z,2.30
2023-02-24T23:30:13.097Z,2.88
2023-02-24T23:32:43.799Z,2.42
2023-02-24T23:35:11.502Z,2.97
2023-02-24T23:37:38.248Z,2.95
2023-02-24T23:40:09.908Z,3.55
2023-02-24T23:42:36.393Z,3.20
2023-02-24T23:45:04.034Z,3.03
2023-02-24T23:47:30.586Z,3.42
2023-02-24T23:49:58.941Z,3.15
2023-02-24T23:52:25.483Z,4.10
2023-02-24T23:54:52.769Z,3.70
2023-02-24T23:57:19.791Z,4.00
2023-02-24T23:59:46.482Z,3.60
